Time,TemperatureF,DewpointF,PressureIn,WindDirection,WindDirectionDegrees,WindSpeedMPH,WindSpeedGustMPH,Humidity,HourlyPrecipIn,Conditions,Clouds,dailyrainin,SoftwareType,DateUTC
2013-05-25 00:02:00,45.0,35.0,30.37,NNE,14,0.0,4.0,68,0.00,,,0.00,,2013-05-25 05:02:00,
2013-05-25 00:12:00,45.0,35.0,30.37,NNE,14,0.0,4.0,68,0.00,,,0.00,,2013-05-25 05:12:00,
2013-05-25 00:22:00,45.0,35.0,30.36,NNE,14,0.0,2.0,69,0.00,,,0.00,,2013-05-25 05:22:00,
2013-05-25 00:32:00,44.0,36.0,30.36,NNE,14,0.0,2.0,72,0.00,,,0.00,,2013-05-25 05:32:00,
2013-05-25 00:42:00,44.0,36.0,30.36,NNE,14,0.0,2.0,72,0.00,,,0.00,,2013-05-25 05:42:00,
2013-05-25 00:52:00,43.0,35.0,30.36,NNE,14,0.0,2.0,74,0.00,,,0.00,,2013-05-25 05:52:00,
2013-05-25 01:02:00,43.0,35.0,30.35,NNE,14,0.0,3.0,74,0.00,,,0.00,,2013-05-25 06:02:00,
2013-05-25 01:12:00,43.0,35.0,30.35,NNE,14,0.0,3.0,74,0.00,,,0.00,,2013-05-25 06:12:00,
2013-05-25 01:21:00,43.0,35.0,30.35,NNE,14,0.0,2.0,74,0.00,,,0.00,,2013-05-25 06:21:00,
2013-05-25 01:32:00,43.0,36.0,30.35,NNE,20,0.0,1.0,76,0.00,,,0.00,,2013-05-25 06:32:00,
2013-05-25 01:42:00,43.0,36.0,30.35,NNE,20,0.0,1.0,76,0.00,,,0.00,,2013-05-25 06:42:00,
2013-05-25 01:52:00,43.0,36.0,30.34,NE,41,0.0,2.0,75,0.00,,,0.00,,2013-05-25 06:52:00,
2013-05-25 02:01:00,43.0,36.0,30.33,ENE,69,0.0,2.0,76,0.00,,,0.00,,2013-05-25 07:01:00,
2013-05-25 02:11:00,43.0,36.0,30.33,ENE,69,0.0,2.0,76,0.00,,,0.00,,2013-05-25 07:11:00,
2013-05-25 02:21:00,43.0,36.0,30.34,ESE,118,0.0,2.0,76,0.00,,,0.00,,2013-05-25 07:21:00,
2013-05-25 02:32:00,43.0,36.0,30.32,SSE,152,1.0,3.0,75,0.00,,,0.00,,2013-05-25 07:32:00,
2013-05-25 02:42:00,43.0,36.0,30.32,SSE,152,1.0,3.0,75,0.00,,,0.00,,2013-05-25 07:42:00,
2013-05-25 02:52:00,43.0,36.0,30.32,SSE,150,1.0,3.0,75,0.00,,,0.00,,2013-05-25 07:52:00,
2013-05-25 03:02:00,43.0,36.0,30.31,SE,142,0.0,3.0,75,0.00,,,0.00,,2013-05-25 08:02:00,
2013-05-25 03:11:00,43.0,36.0,30.31,SE,142,0.0,3.0,75,0.00,,,0.00,,2013-05-25 08:11:00,
2013-05-25 03:22:00,43.0,36.0,30.31,SE,139,0.0,3.0,75,0.00,,,0.00,,2013-05-25 08:22:00,
2013-05-25 03:32:00,43.0,36.0,30.30,SE,138,1.0,5.0,76,0.00,,,0.00,,2013-05-25 08:32:00,
2013-05-25 03:42:00,43.0,36.0,30.30,SE,138,1.0,5.0,76,0.00,,,0.00,,2013-05-25 08:42:00,
2013-05-25 03:51:00,43.0,36.0,30.29,SE,144,2.0,7.0,76,0.00,,,0.00,,2013-05-25 08:51:00,
2013-05-25 04:02:00,43.0,35.0,30.30,SSE,152,2.0,6.0,74,0.00,,,0.00,,2013-05-25 09:02:00,
2013-05-25 04:11:00,43.0,35.0,30.30,SSE,152,2.0,6.0,74,0.00,,,0.00,,2013-05-25 09:11:00,
2013-05-25 04:21:00,44.0,36.0,30.31,SE,140,0.0,6.0,72,0.00,,,0.00,,2013-05-25 09:21:00,
2013-05-25 04:33:00,44.0,35.0,30.32,SE,143,0.0,4.0,71,0.00,,,0.00,,2013-05-25 09:33:00,
2013-05-25 04:43:00,44.0,35.0,30.32,SE,143,0.0,4.0,71,0.00,,,0.00,,2013-05-25 09:43:00,
2013-05-25 04:52:00,44.0,35.0,30.33,ESE,104,0.0,2.0,71,0.00,,,0.00,,2013-05-25 09:52:00,
2013-05-25 05:03:00,44.0,36.0,30.34,ESE,123,0.0,2.0,72,0.00,,,0.00,,2013-05-25 10:03:00,
2013-05-25 05:12:00,44.0,36.0,30.34,ESE,123,0.0,2.0,72,0.00,,,0.00,,2013-05-25 10:12:00,
2013-05-25 05:22:00,44.0,36.0,30.34,SW,235,0.0,2.0,72,0.00,,,0.00,,2013-05-25 10:22:00,
2013-05-25 05:33:00,44.0,36.0,30.32,East,95,3.0,7.0,73,0.00,,,0.00,,2013-05-25 10:33:00,
2013-05-25 05:42:00,44.0,36.0,30.32,East,95,3.0,7.0,73,0.00,,,0.00,,2013-05-25 10:42:00,
2013-05-25 05:52:00,45.0,37.0,30.34,WSW,258,1.0,7.0,72,0.00,,,0.00,,2013-05-25 10:52:00,
2013-05-25 06:02:00,45.0,37.0,30.35,SW,218,4.0,7.0,72,0.00,,,0.00,,2013-05-25 11:02:00,
2013-05-25 06:12:00,45.0,37.0,30.35,SW,218,4.0,7.0,72,0.00,,,0.00,,2013-05-25 11:12:00,
2013-05-25 06:22:00,45.0,37.0,30.37,SW,231,0.0,4.0,73,0.00,,,0.00,,2013-05-25 11:22:00,
2013-05-25 06:32:00,45.0,36.0,30.37,SSE,163,0.0,2.0,70,0.00,,,0.00,,2013-05-25 11:32:00,
2013-05-25 06:42:00,45.0,36.0,30.37,SSE,163,0.0,2.0,70,0.00,,,0.00,,2013-05-25 11:42:00,
2013-05-25 06:52:00,46.0,37.0,30.37,SE,145,0.0,2.0,72,0.00,,,0.00,,2013-05-25 11:52:00,
2013-05-25 07:01:00,46.0,37.0,30.36,SE,144,0.0,5.0,72,0.00,,,0.00,,2013-05-25 12:01:00,
2013-05-25 07:12:00,46.0,37.0,30.36,SE,144,0.0,5.0,72,0.00,,,0.00,,2013-05-25 12:12:00,
2013-05-25 07:22:00,46.0,40.0,30.35,SSE,159,1.0,4.0,78,0.00,,,0.00,,2013-05-25 12:22:00,
2013-05-25 07:32:00,47.0,39.0,30.36,South,172,1.0,4.0,74,0.00,,,0.00,,2013-05-25 12:32:00,
2013-05-25 07:42:00,47.0,39.0,30.36,South,172,1.0,4.0,74,0.00,,,0.00,,2013-05-25 12:42:00,
2013-05-25 07:52:00,48.0,39.0,30.38,West,277,0.0,4.0,70,0.00,,,0.00,,2013-05-25 12:52:00,
2013-05-25 08:02:00,48.0,38.0,30.38,West,277,0.0,1.0,67,0.00,,,0.00,,2013-05-25 13:02:00,
2013-05-25 08:11:00,48.0,38.0,30.38,West,277,0.0,1.0,67,0.00,,,0.00,,2013-05-25 13:11:00,
2013-05-25 08:21:00,49.0,38.0,30.37,West,277,0.0,1.0,65,0.00,,,0.00,,2013-05-25 13:21:00,
2013-05-25 08:32:00,50.0,40.0,30.39,NW,304,1.0,5.0,68,0.00,,,0.00,,2013-05-25 13:32:00,
2013-05-25 08:42:00,50.0,40.0,30.39,NW,304,1.0,5.0,68,0.00,,,0.00,,2013-05-25 13:42:00,
2013-05-25 08:52:00,50.0,38.0,30.38,NW,304,0.0,1.0,64,0.00,,,0.00,,2013-05-25 13:52:00,
2013-05-25 09:02:00,51.0,38.0,30.38,ESE,115,0.0,3.0,62,0.00,,,0.00,,2013-05-25 14:02:00,
2013-05-25 09:11:00,51.0,38.0,30.38,ESE,115,0.0,3.0,62,0.00,,,0.00,,2013-05-25 14:11:00,
2013-05-25 09:22:00,51.0,38.0,30.39,ESE,109,0.0,2.0,61,0.00,,,0.00,,2013-05-25 14:22:00,
2013-05-25 09:32:00,51.0,38.0,30.39,East,90,0.0,1.0,62,0.00,,,0.00,,2013-05-25 14:32:00,
2013-05-25 09:42:00,51.0,38.0,30.39,East,90,0.0,1.0,62,0.00,,,0.00,,2013-05-25 14:42:00,
2013-05-25 09:52:00,52.0,39.0,30.39,East,90,0.0,1.0,62,0.00,,,0.00,,2013-05-25 14:52:00,
2013-05-25 10:01:00,52.0,39.0,30.38,East,90,0.0,1.0,61,0.00,,,0.00,,2013-05-25 15:01:00,
2013-05-25 10:11:00,52.0,39.0,30.38,East,90,0.0,1.0,61,0.00,,,0.00,,2013-05-25 15:11:00,
2013-05-25 10:22:00,53.0,39.0,30.38,East,90,0.0,1.0,59,0.00,,,0.00,,2013-05-25 15:22:00,
2013-05-25 10:33:00,53.0,40.0,30.37,ENE,71,0.0,2.0,61,0.00,,,0.00,,2013-05-25 15:33:00,
2013-05-25 10:43:00,53.0,40.0,30.37,ENE,71,0.0,2.0,61,0.00,,,0.00,,2013-05-25 15:43:00,
2013-05-25 10:53:00,55.0,41.0,30.37,East,94,0.0,3.0,60,0.00,,,0.00,,2013-05-25 15:53:00,
2013-05-25 11:03:00,55.0,42.0,30.37,SSE,154,1.0,5.0,61,0.00,,,0.00,,2013-05-25 16:03:00,
2013-05-25 11:12:00,55.0,42.0,30.37,SSE,154,1.0,5.0,61,0.00,,,0.00,,2013-05-25 16:12:00,
2013-05-25 11:23:00,56.0,43.0,30.37,SSE,153,0.0,4.0,62,0.00,,,0.00,,2013-05-25 16:23:00,
2013-05-25 11:32:00,56.0,43.0,30.37,NNE,27,0.0,4.0,62,0.00,,,0.00,,2013-05-25 16:32:00,
2013-05-25 11:42:00,56.0,43.0,30.37,NNE,27,0.0,4.0,62,0.00,,,0.00,,2013-05-25 16:42:00,
2013-05-25 11:52:00,56.0,43.0,30.37,NNE,15,1.0,4.0,61,0.00,,,0.00,,2013-05-25 16:52:00,
2013-05-25 12:03:00,56.0,43.0,30.38,ENE,69,0.0,3.0,61,0.00,,,0.00,,2013-05-25 17:03:00,
2013-05-25 12:11:00,56.0,43.0,30.38,ENE,69,0.0,3.0,61,0.00,,,0.00,,2013-05-25 17:11:00,
2013-05-25 12:22:00,56.0,42.0,30.37,NE,49,0.0,2.0,60,0.00,,,0.00,,2013-05-25 17:22:00,
2013-05-25 12:32:00,56.0,42.0,30.37,NE,51,0.0,1.0,59,0.00,,,0.00,,2013-05-25 17:32:00,
2013-05-25 12:42:00,56.0,42.0,30.37,NE,51,0.0,1.0,59,0.00,,,0.00,,2013-05-25 17:42:00,
2013-05-25 12:52:00,57.0,43.0,30.37,NE,55,0.0,1.0,60,0.00,,,0.00,,2013-05-25 17:52:00,
2013-05-25 13:01:00,57.0,43.0,30.37,East,85,0.0,2.0,59,0.00,,,0.00,,2013-05-25 18:01:00,
2013-05-25 13:11:00,57.0,43.0,30.37,East,85,0.0,2.0,59,0.00,,,0.00,,2013-05-25 18:11:00,
2013-05-25 13:21:00,58.0,43.0,30.36,East,86,0.0,2.0,58,0.00,,,0.00,,2013-05-25 18:21:00,
2013-05-25 13:32:00,59.0,42.0,30.35,East,86,0.0,2.0,54,0.00,,,0.00,,2013-05-25 18:32:00,
2013-05-25 13:42:00,59.0,42.0,30.35,East,86,0.0,2.0,54,0.00,,,0.00,,2013-05-25 18:42:00,
2013-05-25 13:52:00,59.0,40.0,30.34,East,86,0.0,1.0,49,0.00,,,0.00,,2013-05-25 18:52:00,
2013-05-25 14:01:00,60.0,44.0,30.32,SSE,149,1.0,4.0,55,0.00,,,0.00,,2013-05-25 19:01:00,
2013-05-25 14:11:00,60.0,44.0,30.32,SSE,149,1.0,4.0,55,0.00,,,0.00,,2013-05-25 19:11:00,
2013-05-25 14:22:00,59.0,41.0,30.31,SSE,152,1.0,3.0,51,0.00,,,0.00,,2013-05-25 19:22:00,
2013-05-25 14:32:00,60.0,40.0,30.30,SE,132,1.0,5.0,48,0.00,,,0.00,,2013-05-25 19:32:00,
2013-05-25 14:42:00,60.0,40.0,30.30,SE,132,1.0,5.0,48,0.00,,,0.00,,2013-05-25 19:42:00,
2013-05-25 14:52:00,60.0,40.0,30.31,SSE,163,0.0,5.0,48,0.00,,,0.00,,2013-05-25 19:52:00,
2013-05-25 15:02:00,60.0,39.0,30.32,SSE,159,0.0,2.0,45,0.00,,,0.00,,2013-05-25 20:02:00,
2013-05-25 15:11:00,60.0,39.0,30.32,SSE,159,0.0,2.0,45,0.00,,,0.00,,2013-05-25 20:11:00,
2013-05-25 15:22:00,60.0,38.0,30.32,SSE,159,0.0,1.0,44,0.00,,,0.00,,2013-05-25 20:22:00,
2013-05-25 15:32:00,60.0,36.0,30.30,SSE,153,0.0,3.0,41,0.00,,,0.00,,2013-05-25 20:32:00,
2013-05-25 15:42:00,60.0,36.0,30.30,SSE,153,0.0,3.0,41,0.00,,,0.00,,2013-05-25 20:42:00,
2013-05-25 15:52:00,60.0,37.0,30.29,SE,142,3.0,5.0,42,0.00,,,0.00,,2013-05-25 20:52:00,
2013-05-25 16:02:00,60.0,37.0,30.25,SE,136,3.0,8.0,42,0.00,,,0.00,,2013-05-25 21:02:00,
2013-05-25 16:11:00,60.0,37.0,30.25,SE,136,3.0,8.0,42,0.00,,,0.00,,2013-05-25 21:11:00,
2013-05-25 16:21:00,59.0,43.0,30.23,SE,132,3.0,9.0,56,0.00,,,0.00,,2013-05-25 21:21:00,
2013-05-25 16:33:00,59.0,45.0,30.22,ESE,105,2.0,7.0,60,0.00,,,0.00,,2013-05-25 21:33:00,
2013-05-25 16:43:00,59.0,45.0,30.22,ESE,105,2.0,7.0,60,0.00,,,0.00,,2013-05-25 21:43:00,
2013-05-25 16:53:00,59.0,43.0,30.23,SW,236,3.0,9.0,56,0.00,,,0.00,,2013-05-25 21:53:00,
2013-05-25 17:03:00,59.0,43.0,30.26,ENE,68,1.0,4.0,56,0.00,,,0.00,,2013-05-25 22:03:00,
2013-05-25 17:12:00,59.0,43.0,30.26,ENE,68,1.0,4.0,56,0.00,,,0.00,,2013-05-25 22:12:00,
2013-05-25 17:22:00,58.0,44.0,30.27,North,360,3.0,5.0,59,0.00,,,0.00,,2013-05-25 22:22:00,
2013-05-25 17:32:00,57.0,45.0,30.29,North,10,3.0,8.0,63,0.00,,,0.00,,2013-05-25 22:32:00,
2013-05-25 17:42:00,57.0,45.0,30.29,North,10,3.0,8.0,63,0.00,,,0.00,,2013-05-25 22:42:00,
2013-05-25 17:52:00,56.0,47.0,30.31,NNE,16,1.0,3.0,71,0.00,,,0.00,,2013-05-25 22:52:00,
2013-05-25 18:02:00,55.0,47.0,30.31,NNE,16,0.0,2.0,75,0.01,,,0.01,,2013-05-25 23:02:00,
2013-05-25 18:12:00,55.0,47.0,30.31,NNE,16,0.0,2.0,75,0.01,,,0.01,,2013-05-25 23:12:00,
2013-05-25 18:22:00,55.0,48.0,30.30,NNE,16,0.0,1.0,78,0.01,,,0.01,,2013-05-25 23:22:00,
2013-05-25 18:32:00,54.0,46.0,30.29,NNE,16,1.0,2.0,75,0.01,,,0.01,,2013-05-25 23:32:00,
2013-05-25 18:42:00,54.0,46.0,30.29,NNE,16,1.0,2.0,75,0.01,,,0.01,,2013-05-25 23:42:00,
2013-05-25 18:52:00,55.0,48.0,30.29,NNE,16,1.0,3.0,78,0.01,,,0.01,,2013-05-25 23:52:00,
2013-05-25 19:01:00,55.0,48.0,30.29,NNE,16,1.0,3.0,78,0.00,,,0.01,,2013-05-26 00:01:00,
2013-05-25 19:11:00,55.0,48.0,30.29,NNE,16,1.0,3.0,78,0.00,,,0.01,,2013-05-26 00:11:00,
2013-05-25 19:22:00,55.0,48.0,30.29,NNE,16,0.0,3.0,76,0.00,,,0.01,,2013-05-26 00:22:00,
2013-05-25 19:31:00,55.0,47.0,30.29,NNE,16,0.0,3.0,75,0.00,,,0.01,,2013-05-26 00:31:00,
2013-05-25 19:42:00,55.0,47.0,30.29,NNE,16,0.0,3.0,75,0.00,,,0.01,,2013-05-26 00:42:00,
2013-05-25 19:52:00,55.0,47.0,30.29,NNE,16,0.0,1.0,75,0.00,,,0.01,,2013-05-26 00:52:00,
2013-05-25 20:01:00,54.0,47.0,30.29,NNE,16,0.0,0.0,76,0.00,,,0.01,,2013-05-26 01:01:00,
2013-05-25 20:11:00,54.0,47.0,30.29,NNE,16,0.0,0.0,76,0.00,,,0.01,,2013-05-26 01:11:00,
2013-05-25 20:21:00,54.0,48.0,30.30,NNE,16,0.0,0.0,81,0.00,,,0.01,,2013-05-26 01:21:00,
2013-05-25 20:32:00,54.0,49.0,30.30,NNE,16,0.0,0.0,83,0.00,,,0.01,,2013-05-26 01:32:00,
2013-05-25 20:42:00,54.0,49.0,30.30,NNE,16,0.0,0.0,83,0.00,,,0.01,,2013-05-26 01:42:00,
2013-05-25 20:52:00,53.0,49.0,30.31,NNE,16,0.0,0.0,85,0.00,,,0.01,,2013-05-26 01:52:00,
2013-05-25 21:02:00,53.0,49.0,30.31,NNE,16,0.0,1.0,85,0.00,,,0.01,,2013-05-26 02:02:00,
2013-05-25 21:11:00,53.0,49.0,30.31,NNE,16,0.0,1.0,85,0.00,,,0.01,,2013-05-26 02:11:00,
2013-05-25 21:21:00,53.0,49.0,30.30,NNE,16,0.0,0.0,86,0.00,,,0.01,,2013-05-26 02:21:00,
2013-05-25 21:32:00,53.0,49.0,30.30,NNE,16,0.0,1.0,85,0.00,,,0.01,,2013-05-26 02:32:00,
2013-05-25 21:42:00,53.0,49.0,30.30,NNE,16,0.0,1.0,85,0.00,,,0.01,,2013-05-26 02:42:00,
2013-05-25 21:52:00,53.0,49.0,30.30,NNE,16,0.0,0.0,85,0.00,,,0.01,,2013-05-26 02:52:00,
2013-05-25 22:01:00,52.0,48.0,30.30,NNE,16,0.0,0.0,85,0.00,,,0.01,,2013-05-26 03:01:00,
2013-05-25 22:11:00,52.0,48.0,30.30,NNE,16,0.0,0.0,85,0.00,,,0.01,,2013-05-26 03:11:00,
2013-05-25 22:21:00,52.0,47.0,30.32,NNE,16,0.0,0.0,84,0.00,,,0.01,,2013-05-26 03:21:00,
2013-05-25 22:33:00,51.0,46.0,30.32,NNE,16,0.0,2.0,83,0.00,,,0.01,,2013-05-26 03:33:00,
2013-05-25 22:42:00,51.0,46.0,30.32,NNE,16,0.0,2.0,83,0.00,,,0.01,,2013-05-26 03:42:00,
2013-05-25 22:53:00,51.0,45.0,30.32,NNE,16,0.0,1.0,81,0.00,,,0.01,,2013-05-26 03:53:00,
2013-05-25 23:02:00,51.0,45.0,30.32,NNE,16,0.0,0.0,81,0.00,,,0.01,,2013-05-26 04:02:00,
2013-05-25 23:12:00,51.0,45.0,30.32,NNE,16,0.0,0.0,81,0.00,,,0.01,,2013-05-26 04:12:00,
2013-05-25 23:23:00,51.0,45.0,30.29,ESE,116,0.0,2.0,81,0.00,,,0.01,,2013-05-26 04:23:00,
2013-05-25 23:33:00,51.0,46.0,30.29,ESE,116,0.0,0.0,83,0.00,,,0.01,,2013-05-26 04:33:00,
2013-05-25 23:42:00,51.0,46.0,30.29,ESE,116,0.0,0.0,83,0.00,,,0.01,,2013-05-26 04:42:00,
2013-05-25 23:52:00,50.0,45.0,30.29,ESE,116,0.0,0.0,84,0.00,,,0.01,,2013-05-26 04:52:00,